Circle Line Bronx — WDJ2555 — position and weather

sailwx.info

Track history (hours):
 
Tides and Currents Weather Stations Pressure Air Temp Water Temp Dewpoint Dewpoint Depression Visibility Wind Speed Wind Dir Waves Ship Positions

Circle Line Bronx

Owner: Circle Line Sightseeing Yachts Inc., New York, NY. More information available from US FCC via Universal Licensing System and Coast Guard Vessel Documentation Center.

Last reported at 2018-Jan-21 19:22 UTC. Time now 2018-Jan-22 23:48 UTC.
Position N 40°46' W 074°00'.

Length 47 m; draft 2.1 m.

Type: Passenger vessel. MMSI: 367759510.

Date/timePositionNaut miles runAvg speedWind from/ knotsBaromVisibWave heightAir tempDewpointWater temp
2018-Jan-21 19:22N 40°46' W 074°00'513.4
2018-Jan-21 19:00N 40°41' W 074°03'5 9.6
2018-Jan-21 18:30N 40°46' W 074°00'0 0.0
2018-Jan-21 18:00N 40°46' W 074°00'0 0.0
2018-Jan-21 17:30N 40°46' W 074°00'0 0.0
2018-Jan-21 17:00N 40°46' W 074°00'0 0.0
2018-Jan-21 16:30N 40°46' W 074°00'0 0.0
2018-Jan-21 16:00N 40°46' W 074°00'510.1
2018-Jan-21 15:30N 40°41' W 074°02'5 9.8
2018-Jan-21 15:00N 40°46' W 074°00'0 0.0
2018-Jan-21 14:30N 40°46' W 074°00'0 0.0
2018-Jan-21 01:48N 40°46' W 074°00'310.2
2018-Jan-21 01:30N 40°43' W 074°01'3 5.8
2018-Jan-21 01:00N 40°44' W 073°58'5 9.4
2018-Jan-21 00:30N 40°41' W 074°03'5 9.8
2018-Jan-21 00:00N 40°46' W 074°00'0 0.0
2018-Jan-20 23:30N 40°46' W 074°00'0 0.0
2018-Jan-20 23:00N 40°46' W 074°00'0 0.0
2018-Jan-20 22:30N 40°46' W 074°00'0 0.0
2018-Jan-20 22:00N 40°46' W 074°00'4 7.9
2018-Jan-20 21:31N 40°42' W 074°01'1 1.8
2018-Jan-20 21:00N 40°42' W 074°02'4 8.6
2018-Jan-20 20:29N 40°46' W 074°00'0 0.0
2018-Jan-20 20:00N 40°46' W 074°00'0 0.0
2018-Jan-20 19:30N 40°46' W 074°00'5 9.7
2018-Jan-20 19:00N 40°41' W 074°02'5 9.7
2018-Jan-20 18:31N 40°46' W 074°00'0 0.0
2018-Jan-20 18:01N 40°46' W 074°00'0 0.0
2018-Jan-20 17:31N 40°46' W 074°00'0 0.0
2018-Jan-20 17:00N 40°46' W 074°00'0 0.0
2018-Jan-20 16:30N 40°46' W 074°00'0 0.0
2018-Jan-20 01:49N 40°46' W 074°00'3 9.3
2018-Jan-20 01:30N 40°43' W 074°01'3 6.0
2018-Jan-20 01:00N 40°44' W 073°58'5 9.4
2018-Jan-20 00:31N 40°41' W 074°02'5 9.4
2018-Jan-20 00:00N 40°46' W 074°00'0 0.0
2018-Jan-19 23:30N 40°46' W 074°00'0 0.0
2018-Jan-19 23:00N 40°46' W 074°00'0 0.0
2018-Jan-19 22:30N 40°46' W 074°00'0 0.0
2018-Jan-19 22:00N 40°46' W 074°00'3 6.8
2018-Jan-19 21:31N 40°43' W 074°01'1 1.7
2018-Jan-19 21:00N 40°42' W 074°01'4 8.2
2018-Jan-19 20:30N 40°46' W 074°00'0 0.0
2018-Jan-19 20:00N 40°46' W 074°00'0 0.0
2018-Jan-19 19:30N 40°46' W 074°00'5 9.5
2018-Jan-19 19:00N 40°41' W 074°02'5 9.7
2018-Jan-19 18:30N 40°46' W 074°00'0 0.0
2018-Jan-19 18:00N 40°46' W 074°00'0 0.0
2018-Jan-19 17:27N 40°46' W 074°00'0 0.0
2018-Jan-19 16:59N 40°46' W 074°00'0 0.0
2018-Jan-19 16:30N 40°46' W 074°00'0 0.0
2018-Jan-19 16:00N 40°46' W 074°00'0 0.0
2018-Jan-19 15:29N 40°46' W 074°00'0 0.0
2018-Jan-19 14:58N 40°46' W 074°00'0 0.0
2018-Jan-19 14:30N 40°46' W 074°00'0 0.0
2018-Jan-19 14:00N 40°46' W 074°00'0 0.0
2018-Jan-19 13:30N 40°46' W 074°00'0 0.0
2018-Jan-19 13:00N 40°46' W 074°00'0 0.0
2018-Jan-19 12:30N 40°46' W 074°00'0 0.0
2018-Jan-19 12:00N 40°46' W 074°00'0 0.0
2018-Jan-19 11:30N 40°46' W 074°00'0 0.0
2018-Jan-19 10:59N 40°46' W 074°00'0 0.0
2018-Jan-18 19:27N 40°46' W 074°00'510.4
2018-Jan-18 19:00N 40°41' W 074°02'5 9.4
2018-Jan-18 18:30N 40°46' W 074°00'0 0.0
2018-Jan-18 18:01N 40°46' W 074°00'0 0.0
2018-Jan-18 17:30N 40°46' W 074°00'0 0.0
2018-Jan-18 17:00N 40°46' W 074°00'0 0.0
2018-Jan-18 16:31N 40°46' W 074°00'0 0.0
2018-Jan-18 16:00N 40°46' W 074°00'5 9.7
2018-Jan-18 15:30N 40°41' W 074°02'5 9.7
2018-Jan-18 15:00N 40°46' W 074°00'0 0.0
2018-Jan-18 14:31N 40°46' W 074°00'0 0.0
2018-Jan-18 14:01N 40°46' W 074°00'0 0.0
2018-Jan-18 13:30N 40°46' W 074°00'0 0.0
2018-Jan-18 13:00N 40°46' W 074°00'0 0.0
2018-Jan-18 12:31N 40°46' W 074°00'  
2018-Jan-11 19:41N 40°46' W 074°00'0 1.5
2018-Jan-11 19:30N 40°46' W 074°00'  
Track history (hours):
 
Tides and Currents Weather Stations Pressure Air Temp Water Temp Dewpoint Dewpoint Depression Visibility Wind Speed Wind Dir Waves Ship Positions

Circle Line Bronx

Owner: Circle Line Sightseeing Yachts Inc., New York, NY. More information available from US FCC via Universal Licensing System and Coast Guard Vessel Documentation Center.

Last reported at 2018-Jan-21 19:22 UTC. Time now 2018-Jan-22 23:48 UTC.
Position N 40°46' W 074°00'.

Length 47 m; draft 2.1 m.

Type: Passenger vessel. MMSI: 367759510.

Date/timePositionNaut miles runAvg speedWind from/ knotsBaromVisibWave heightAir tempDewpointWater temp
2018-Jan-21 19:22N 40°46' W 074°00'513.4
2018-Jan-21 19:00N 40°41' W 074°03'5 9.6
2018-Jan-21 18:30N 40°46' W 074°00'0 0.0
2018-Jan-21 18:00N 40°46' W 074°00'0 0.0
2018-Jan-21 17:30N 40°46' W 074°00'0 0.0
2018-Jan-21 17:00N 40°46' W 074°00'0 0.0
2018-Jan-21 16:30N 40°46' W 074°00'0 0.0
2018-Jan-21 16:00N 40°46' W 074°00'510.1
2018-Jan-21 15:30N 40°41' W 074°02'5 9.8
2018-Jan-21 15:00N 40°46' W 074°00'0 0.0
2018-Jan-21 14:30N 40°46' W 074°00'0 0.0
2018-Jan-21 01:48N 40°46' W 074°00'310.2
2018-Jan-21 01:30N 40°43' W 074°01'3 5.8
2018-Jan-21 01:00N 40°44' W 073°58'5 9.4
2018-Jan-21 00:30N 40°41' W 074°03'5 9.8
2018-Jan-21 00:00N 40°46' W 074°00'0 0.0
2018-Jan-20 23:30N 40°46' W 074°00'0 0.0
2018-Jan-20 23:00N 40°46' W 074°00'0 0.0
2018-Jan-20 22:30N 40°46' W 074°00'0 0.0
2018-Jan-20 22:00N 40°46' W 074°00'4 7.9
2018-Jan-20 21:31N 40°42' W 074°01'1 1.8
2018-Jan-20 21:00N 40°42' W 074°02'4 8.6
2018-Jan-20 20:29N 40°46' W 074°00'0 0.0
2018-Jan-20 20:00N 40°46' W 074°00'0 0.0
2018-Jan-20 19:30N 40°46' W 074°00'5 9.7
2018-Jan-20 19:00N 40°41' W 074°02'5 9.7
2018-Jan-20 18:31N 40°46' W 074°00'0 0.0
2018-Jan-20 18:01N 40°46' W 074°00'0 0.0
2018-Jan-20 17:31N 40°46' W 074°00'0 0.0
2018-Jan-20 17:00N 40°46' W 074°00'0 0.0
2018-Jan-20 16:30N 40°46' W 074°00'0 0.0
2018-Jan-20 01:49N 40°46' W 074°00'3 9.3
2018-Jan-20 01:30N 40°43' W 074°01'3 6.0
2018-Jan-20 01:00N 40°44' W 073°58'5 9.4
2018-Jan-20 00:31N 40°41' W 074°02'5 9.4
2018-Jan-20 00:00N 40°46' W 074°00'0 0.0
2018-Jan-19 23:30N 40°46' W 074°00'0 0.0
2018-Jan-19 23:00N 40°46' W 074°00'0 0.0
2018-Jan-19 22:30N 40°46' W 074°00'0 0.0
2018-Jan-19 22:00N 40°46' W 074°00'3 6.8
2018-Jan-19 21:31N 40°43' W 074°01'1 1.7
2018-Jan-19 21:00N 40°42' W 074°01'4 8.2
2018-Jan-19 20:30N 40°46' W 074°00'0 0.0
2018-Jan-19 20:00N 40°46' W 074°00'0 0.0
2018-Jan-19 19:30N 40°46' W 074°00'5 9.5
2018-Jan-19 19:00N 40°41' W 074°02'5 9.7
2018-Jan-19 18:30N 40°46' W 074°00'0 0.0
2018-Jan-19 18:00N 40°46' W 074°00'0 0.0
2018-Jan-19 17:27N 40°46' W 074°00'0 0.0
2018-Jan-19 16:59N 40°46' W 074°00'0 0.0
2018-Jan-19 16:30N 40°46' W 074°00'0 0.0
2018-Jan-19 16:00N 40°46' W 074°00'0 0.0
2018-Jan-19 15:29N 40°46' W 074°00'0 0.0
2018-Jan-19 14:58N 40°46' W 074°00'0 0.0
2018-Jan-19 14:30N 40°46' W 074°00'0 0.0
2018-Jan-19 14:00N 40°46' W 074°00'0 0.0
2018-Jan-19 13:30N 40°46' W 074°00'0 0.0
2018-Jan-19 13:00N 40°46' W 074°00'0 0.0
2018-Jan-19 12:30N 40°46' W 074°00'0 0.0
2018-Jan-19 12:00N 40°46' W 074°00'0 0.0
2018-Jan-19 11:30N 40°46' W 074°00'0 0.0
2018-Jan-19 10:59N 40°46' W 074°00'0 0.0
2018-Jan-18 19:27N 40°46' W 074°00'510.4
2018-Jan-18 19:00N 40°41' W 074°02'5 9.4
2018-Jan-18 18:30N 40°46' W 074°00'0 0.0
2018-Jan-18 18:01N 40°46' W 074°00'0 0.0
2018-Jan-18 17:30N 40°46' W 074°00'0 0.0
2018-Jan-18 17:00N 40°46' W 074°00'0 0.0
2018-Jan-18 16:31N 40°46' W 074°00'0 0.0
2018-Jan-18 16:00N 40°46' W 074°00'5 9.7
2018-Jan-18 15:30N 40°41' W 074°02'5 9.7
2018-Jan-18 15:00N 40°46' W 074°00'0 0.0
2018-Jan-18 14:31N 40°46' W 074°00'0 0.0
2018-Jan-18 14:01N 40°46' W 074°00'0 0.0
2018-Jan-18 13:30N 40°46' W 074°00'0 0.0
2018-Jan-18 13:00N 40°46' W 074°00'0 0.0
2018-Jan-18 12:31N 40°46' W 074°00'  
2018-Jan-11 19:41N 40°46' W 074°00'0 1.5
2018-Jan-11 19:30N 40°46' W 074°00'  

Dump ship's entire track history